Ashcamp, KY (41512)

1:56 PM EST en Marzo 02, 2015 (GMT -0500)
Ramey Flats | Change Station
CLOSE
Current Station
Estación meteorológica personal
Location: Clintwood, VA
Altura: 1795 ft
Estaciones meteorológicas cercanas

Alt 1795 ft 37.21 °N, 82.44 °W | Updated 9 minutes ago

Despejado
Despejado
39.0 ° F
Sensación térmica 36 ° F
N
4.0
Viento Variable Viento desde ENE
Gusts 9.0 mph

Hoy
Alta -- | Baja -- ° F
--% Posibilidad de precipitaciones
Ayer
Alta -- | Baja -- ° F
Precip. -- pul
6:59 AM 6:24 PM
Gibosa creciente, 92% visible
Presión 30.33 pul
Visibilidad 10.0 Millas
Nubes Despejado
Vientos helados 36 ° F
Punto de rocío 27 ° F
Humedad 63%
Precipitaciones 0.00 pul
Espesor de la nieve No disponible.
UV 6 de una escala de 12
Polen 1.70 de una escala de 12
Calidad del aire No disponible.
Flu Activity No disponible.
METAR KLNP 021835Z AUTO 34004KT 10SM CLR 03/M04 A3033 RMK AO2

More Conditions Fewer Conditions

Presión 30.33 pul
Visibilidad 10.0 Millas
Nubes Despejado
Vientos helados 36 ° F
Punto de rocío 27 ° F
Humedad 63%
Precipitaciones 0.00 pul
Espesor de la nieve No disponible.
UV 6 de una escala de 12
Polen 1.70 de una escala de 12
Calidad del aire No disponible.
Flu Activity No disponible.
METAR KLNP 021835Z AUTO 34004KT 10SM CLR 03/M04 A3033 RMK AO2

More Conditions Fewer Conditions

10-Day Weather Forecast

Almanac

Astronomía

Mar. 02, 2015 Salida Puesta
Hora real
Crepúsculo civil
Crepúsculo náutico
Crepúsculo astronómico
Luna
Horas de luz
Horas de luz
Tomorrow will be .
, % of the Moon is Illuminated

Extremos de hoy

Máximos del estado Bajos del estado

Community

WunderPhotos

Upload Photos

1,801,906 ¡fotos cargadas!

WunderBlogs® & News

Nearby

Calidad del aire

  Calidad del aire Índice AQ Contaminante
Not available.

Grosos de nieve

Estación Profundido Altura

Actividad de terremotos

Ciudad Distance Mag. Tiempo y dato
Magnitud mínima muestra es 2,5.

Temperaturas de aguas costeras

Lugar Temperatura

Estaciones meteorológicas cercanas